createdAt,value
2022-12-31T00:00:22.262Z,34.83
2022-12-31T00:05:24.517Z,43.43
2022-12-31T00:10:26.705Z,58.75
2022-12-31T00:15:29.122Z,54.80
2022-12-31T00:20:31.621Z,52.17
2022-12-31T00:25:36.470Z,48.22
2022-12-31T00:30:39.064Z,51.07
2022-12-31T00:35:41.232Z,46.50
2022-12-31T00:40:43.398Z,47.87
2022-12-31T00:45:45.552Z,49.92
2022-12-31T00:50:47.921Z,43.75
2022-12-31T00:55:50.571Z,48.97
2022-12-31T01:00:52.778Z,45.92
2022-12-31T01:05:59.493Z,50.57
2022-12-31T01:11:21.310Z,50.50
2022-12-31T01:16:26.790Z,40.70
2022-12-31T01:21:29.811Z,37.97
2022-12-31T01:26:32.479Z,36.08
2022-12-31T01:31:36.046Z,32.63
2022-12-31T01:36:38.738Z,30.62
2022-12-31T01:41:44.940Z,28.77
2022-12-31T01:46:55.873Z,30.13
2022-12-31T01:52:04.676Z,34.17
2022-12-31T01:57:08.244Z,29.97
2022-12-31T02:02:11.336Z,32.65
2022-12-31T02:07:13.634Z,29.87
2022-12-31T02:12:15.973Z,30.93
2022-12-31T02:17:58.560Z,35.65
2022-12-31T02:23:03.593Z,30.67
2022-12-31T02:28:14.771Z,33.65
2022-12-31T02:33:26.897Z,34.35
2022-12-31T02:38:33.272Z,33.03
2022-12-31T02:43:35.483Z,37.15
2022-12-31T02:48:41.229Z,38.73
2022-12-31T02:54:14.362Z,36.75
2022-12-31T02:59:45.316Z,39.35
2022-12-31T03:04:56.348Z,37.77
2022-12-31T03:09:59.945Z,35.88
2022-12-31T03:15:02.176Z,34.63
2022-12-31T03:20:23.791Z,38.80
2022-12-31T03:25:41.185Z,37.58
2022-12-31T03:30:46.472Z,35.50
2022-12-31T03:35:50.735Z,35.47
2022-12-31T03:40:54.674Z,38.73
2022-12-31T03:45:59.808Z,38.67
2022-12-31T03:51:02.115Z,40.88
2022-12-31T03:56:04.582Z,38.13
2022-12-31T04:01:07.347Z,41.60
2022-12-31T04:06:09.579Z,47.43
2022-12-31T04:11:17.345Z,42.38
2022-12-31T04:16:22.763Z,44.15
2022-12-31T04:21:26.847Z,40.53
2022-12-31T04:26:32.380Z,35.97
2022-12-31T04:31:34.636Z,39.47
2022-12-31T04:36:36.900Z,42.33
2022-12-31T04:41:39.085Z,42.33
2022-12-31T04:46:41.325Z,45.77
2022-12-31T04:51:43.484Z,48.85
2022-12-31T04:56:45.739Z,46.50
2022-12-31T05:01:48.088Z,46.63
2022-12-31T05:06:50.371Z,56.03
2022-12-31T05:11:52.563Z,51.83
2022-12-31T05:16:54.850Z,59.35
2022-12-31T05:22:15.744Z,53.23
2022-12-31T05:27:18.001Z,52.67
2022-12-31T05:32:20.182Z,52.80
2022-12-31T05:37:22.510Z,51.63
2022-12-31T05:42:25.156Z,50.33
2022-12-31T05:47:28.893Z,44.10
2022-12-31T05:52:31.058Z,52.73
2022-12-31T05:57:33.378Z,49.35
2022-12-31T06:02:36.056Z,47.13
2022-12-31T06:07:38.247Z,49.13
2022-12-31T06:12:40.579Z,42.73
2022-12-31T06:17:42.712Z,50.53
2022-12-31T06:22:45.087Z,46.28
2022-12-31T06:27:47.285Z,47.00
2022-12-31T06:32:49.481Z,48.33
2022-12-31T06:37:52.255Z,44.03
2022-12-31T06:42:59.650Z,49.80
2022-12-31T06:48:02.190Z,55.22
2022-12-31T06:53:04.516Z,48.00
2022-12-31T06:58:07.016Z,43.72
2022-12-31T07:03:18.940Z,44.70
2022-12-31T07:08:52.201Z,43.92
2022-12-31T07:14:32.178Z,46.80
2022-12-31T07:19:57.676Z,53.27
2022-12-31T07:25:00.582Z,52.50
2022-12-31T07:30:02.760Z,51.73
2022-12-31T07:35:34.784Z,51.40
2022-12-31T07:40:46.140Z,50.55
2022-12-31T07:45:58.402Z,50.27
2022-12-31T07:51:00.893Z,52.65
2022-12-31T07:56:08.655Z,52.23
2022-12-31T08:01:19.964Z,52.60
2022-12-31T08:06:53.219Z,54.03
2022-12-31T08:12:01.248Z,49.13
2022-12-31T08:17:03.731Z,45.10
2022-12-31T08:22:31.218Z,45.63
2022-12-31T08:28:05.895Z,48.58
2022-12-31T08:33:07.995Z,46.63
2022-12-31T08:38:25.222Z,52.33
2022-12-31T08:43:52.587Z,53.97
2022-12-31T08:48:55.042Z,47.57
2022-12-31T08:53:57.510Z,52.10
2022-12-31T08:59:04.648Z,53.47
2022-12-31T09:04:20.634Z,50.10
2022-12-31T09:09:45.596Z,51.00
2022-12-31T09:14:55.238Z,52.57
2022-12-31T09:19:58.082Z,57.38
2022-12-31T09:25:00.715Z,48.33
2022-12-31T09:30:11.051Z,45.73
2022-12-31T09:35:37.225Z,49.63
2022-12-31T09:40:39.659Z,52.00
2022-12-31T09:46:26.567Z,53.00
2022-12-31T09:51:32.279Z,52.78
2022-12-31T09:56:47.729Z,56.93
2022-12-31T10:01:59.698Z,54.65
2022-12-31T10:07:25.255Z,53.70
2022-12-31T10:12:55.361Z,57.40
2022-12-31T10:18:25.414Z,49.05
2022-12-31T10:23:30.659Z,49.03
2022-12-31T10:28:58.679Z,53.87
2022-12-31T10:34:32.604Z,47.43
2022-12-31T10:39:48.491Z,48.70
2022-12-31T10:45:15.332Z,39.85
2022-12-31T10:50:29.564Z,47.70
2022-12-31T10:56:00.756Z,45.55
2022-12-31T11:01:34.604Z,48.60
2022-12-31T11:07:01.671Z,50.78
2022-12-31T11:12:22.513Z,48.78
2022-12-31T11:17:47.911Z,53.67
2022-12-31T11:23:15.524Z,53.67
2022-12-31T11:28:39.021Z,58.63
2022-12-31T11:34:05.371Z,59.72
2022-12-31T11:39:32.098Z,54.40
2022-12-31T11:44:53.743Z,52.97
2022-12-31T11:50:01.997Z,57.55
2022-12-31T11:55:26.467Z,53.10
2022-12-31T12:00:31.148Z,57.13
2022-12-31T12:05:34.994Z,53.95
2022-12-31T12:10:47.784Z,56.50
2022-12-31T12:15:59.622Z,50.10
2022-12-31T12:21:06.612Z,53.87
2022-12-31T12:26:29.405Z,49.00
2022-12-31T12:31:34.282Z,52.88
2022-12-31T12:36:47.108Z,47.47
2022-12-31T12:42:06.508Z,50.35
2022-12-31T12:47:18.429Z,51.17
2022-12-31T12:52:59.697Z,51.50
2022-12-31T12:58:22.036Z,50.10
2022-12-31T13:03:59.996Z,51.53
2022-12-31T13:09:21.640Z,59.00
2022-12-31T13:14:36.889Z,59.43
2022-12-31T13:19:53.088Z,62.13
2022-12-31T13:25:24.510Z,58.70
2022-12-31T13:30:33.532Z,59.20
2022-12-31T13:35:55.234Z,54.80
2022-12-31T13:40:57.330Z,54.27
2022-12-31T13:46:08.351Z,55.78
2022-12-31T13:51:45.843Z,52.70
2022-12-31T13:56:50.245Z,55.17
2022-12-31T14:02:18.138Z,54.75
2022-12-31T14:07:35.363Z,49.03
2022-12-31T14:13:00.499Z,49.53
2022-12-31T14:18:03.152Z,50.67
2022-12-31T14:23:26.983Z,49.20
2022-12-31T14:29:12.369Z,51.55
2022-12-31T14:34:35.929Z,49.23
2022-12-31T14:40:09.159Z,51.72
2022-12-31T14:45:21.109Z,46.80
2022-12-31T14:50:28.739Z,51.40
2022-12-31T14:55:40.881Z,43.85
2022-12-31T15:00:55.032Z,43.73
2022-12-31T15:06:37.989Z,42.20
2022-12-31T15:12:07.241Z,47.58
2022-12-31T15:17:29.666Z,43.07
2022-12-31T15:22:46.407Z,43.72
2022-12-31T15:27:49.161Z,44.63
2022-12-31T15:32:51.879Z,42.22
2022-12-31T15:38:36.958Z,44.97
2022-12-31T15:44:03.488Z,41.33
2022-12-31T15:49:23.226Z,41.40
2022-12-31T15:54:44.740Z,45.33
2022-12-31T15:59:47.605Z,41.50
2022-12-31T16:04:50.367Z,46.95
2022-12-31T16:09:55.247Z,42.43
2022-12-31T16:14:59.300Z,43.33
2022-12-31T16:20:20.819Z,43.47
2022-12-31T16:25:33.128Z,41.88
2022-12-31T16:30:38.851Z,48.30
2022-12-31T16:35:41.176Z,49.30
2022-12-31T16:41:17.601Z,50.00
2022-12-31T16:46:27.505Z,50.00
2022-12-31T16:51:32.634Z,45.22
2022-12-31T16:56:38.618Z,49.15
2022-12-31T17:01:42.620Z,53.53
2022-12-31T17:06:45.108Z,52.30
2022-12-31T17:11:54.121Z,62.83
2022-12-31T17:17:04.189Z,57.47
2022-12-31T17:22:13.226Z,66.15
2022-12-31T17:27:15.998Z,61.40
2022-12-31T17:32:18.095Z,188.48
2022-12-31T17:37:31.157Z,143.53
2022-12-31T17:42:37.064Z,118.53
2022-12-31T17:47:41.615Z,66.82
2022-12-31T17:52:43.951Z,90.87
2022-12-31T17:57:55.720Z,71.00
2022-12-31T18:02:57.922Z,68.13
2022-12-31T18:08:00.084Z,67.05
2022-12-31T18:13:10.487Z,103.90
2022-12-31T18:18:24.787Z,93.83
2022-12-31T18:23:36.646Z,80.07
2022-12-31T18:28:38.841Z,78.23
2022-12-31T18:33:41.075Z,82.32
2022-12-31T18:38:43.468Z,77.97
2022-12-31T18:43:46.153Z,84.93
2022-12-31T18:48:48.943Z,85.87
2022-12-31T18:53:51.107Z,82.57
2022-12-31T18:58:53.783Z,89.55
2022-12-31T19:03:58.573Z,98.80
2022-12-31T19:09:01.132Z,90.17
2022-12-31T19:14:03.796Z,90.78
2022-12-31T19:19:08.689Z,86.43
2022-12-31T19:24:15.218Z,86.37
2022-12-31T19:29:23.306Z,86.35
2022-12-31T19:34:26.923Z,93.47
2022-12-31T19:39:29.112Z,93.35
2022-12-31T19:44:31.418Z,88.87
2022-12-31T19:49:34.096Z,94.95
2022-12-31T19:54:36.287Z,109.57
2022-12-31T19:59:38.492Z,102.17
2022-12-31T20:04:43.327Z,110.05
2022-12-31T20:09:45.491Z,98.73
2022-12-31T20:14:54.292Z,97.85
2022-12-31T20:19:56.546Z,117.93
2022-12-31T20:24:58.901Z,124.93
2022-12-31T20:30:01.130Z,114.32
2022-12-31T20:35:04.038Z,111.93
2022-12-31T20:40:07.266Z,148.23
2022-12-31T20:45:10.979Z,132.25
2022-12-31T20:50:13.209Z,126.33
2022-12-31T20:55:16.888Z,120.13
2022-12-31T21:00:19.724Z,108.17
2022-12-31T21:05:22.059Z,109.37
2022-12-31T21:10:24.560Z,120.72
2022-12-31T21:15:26.891Z,113.87
2022-12-31T21:20:29.144Z,117.18
2022-12-31T21:25:31.367Z,111.23
2022-12-31T21:30:33.684Z,110.35
2022-12-31T21:35:51.686Z,111.43
2022-12-31T21:40:55.642Z,110.37
2022-12-31T21:46:07.740Z,107.40
2022-12-31T21:51:16.745Z,104.63
2022-12-31T21:56:21.273Z,101.53
2022-12-31T22:01:42.232Z,99.45
2022-12-31T22:06:44.451Z,144.77
2022-12-31T22:11:46.710Z,315.58
2022-12-31T22:16:48.903Z,224.13
2022-12-31T22:21:51.117Z,152.52
2022-12-31T22:26:55.704Z,128.85
2022-12-31T22:32:01.163Z,114.73
2022-12-31T22:37:20.345Z,115.75
2022-12-31T22:42:25.863Z,134.13
2022-12-31T22:47:28.079Z,180.65
2022-12-31T22:52:31.206Z,157.27
2022-12-31T22:57:33.451Z,145.20
2022-12-31T23:02:41.365Z,141.05
2022-12-31T23:07:44.103Z,183.57
2022-12-31T23:12:46.261Z,243.70
2022-12-31T23:18:06.826Z,242.48
2022-12-31T23:23:14.741Z,174.30
2022-12-31T23:28:20.617Z,174.60
2022-12-31T23:33:25.147Z,162.40
2022-12-31T23:38:27.367Z,161.88
2022-12-31T23:43:29.596Z,168.70
2022-12-31T23:48:31.859Z,170.50
2022-12-31T23:53:34.236Z,161.02
2022-12-31T23:58:36.426Z,152.67
